Time;durP1;ratioP1;P1;durP2;ratioP2;P2;SDS_P1;SDS_P2;PMS_P1;PMS_P2;Temp;Humidity;BMP_temperature;BMP_pressure;BME280_temperature;BME280_humidity;BME280_pressure;Samples;Min_cycle;Max_cycle;Signal;HPM_P1;HPM_P2
2022/08/07 01:17:36;;;;;;;4.40;4.00;;;;;;;21.07;100.00;99612.87;1762517;78;28732;-50
2022/08/07 01:20:07;;;;;;;4.95;4.65;;;;;;;20.75;100.00;99608.17;1742423;80;21010;-50
2022/08/07 01:22:38;;;;;;;6.12;4.10;;;;;;;20.53;100.00;99608.41;1741402;80;21126;-50
2022/08/07 01:25:07;;;;;;;4.75;4.33;;;;;;;20.36;100.00;99611.31;1737324;80;21051;-50
2022/08/07 01:27:34;;;;;;;5.00;3.77;;;;;;;20.21;100.00;99607.20;1712915;81;21051;-50
2022/08/07 01:30:02;;;;;;;7.25;3.60;;;;;;;20.08;100.00;99607.92;1740951;80;20985;-50
2022/08/07 01:32:29;;;;;;;4.00;3.60;;;;;;;19.96;100.00;99612.64;1745077;80;21077;-50
2022/08/07 01:34:57;;;;;;;5.78;3.75;;;;;;;19.87;100.00;99614.82;1713460;80;21251;-50
2022/08/07 01:37:24;;;;;;;4.65;4.22;;;;;;;19.80;100.00;99613.64;1712278;81;21516;-50
2022/08/07 01:39:52;;;;;;;5.12;4.00;;;;;;;19.73;100.00;99617.92;1740834;80;21050;-50
2022/08/07 01:42:34;;;;;;;4.12;3.92;;;;;;;19.67;100.00;99615.70;1741903;80;22165;-50
2022/08/07 01:45:03;;;;;;;6.35;4.22;;;;;;;19.59;100.00;99613.16;1737817;80;22098;-50
2022/08/07 01:47:29;;;;;;;5.10;4.70;;;;;;;19.55;100.00;99617.66;1746085;80;21172;-50
2022/08/07 01:49:56;;;;;;;5.72;4.00;;;;;;;19.52;100.00;99617.92;1742475;80;21026;-50
2022/08/07 01:52:25;;;;;;;13.32;4.08;;;;;;;19.48;100.00;99626.86;1743520;80;21485;-50
2022/08/07 01:54:53;;;;;;;3.77;3.58;;;;;;;19.44;100.00;99628.11;1742515;80;21028;-50
2022/08/07 01:57:26;;;;;;;8.15;4.47;;;;;;;19.42;100.00;99623.77;1733754;81;21073;-49
2022/08/07 02:00:10;;;;;;;9.13;4.45;;;;;;;19.40;100.00;99627.13;1708456;82;21767;-49
2022/08/07 02:02:46;;;;;;;8.55;4.45;;;;;;;19.39;100.00;99622.70;1707492;81;21083;-48
2022/08/07 02:05:21;;;;;;;4.35;3.80;;;;;;;19.36;100.00;99620.22;1714336;81;20924;-48
2022/08/07 02:07:52;;;;;;;6.12;4.20;;;;;;;19.34;100.00;99620.34;1708669;81;20893;-48
2022/08/07 02:10:24;;;;;;;4.80;4.37;;;;;;;19.31;100.00;99621.13;1705555;82;20932;-47
2022/08/07 02:12:52;;;;;;;8.15;4.15;;;;;;;19.27;100.00;99628.20;1713432;81;21112;-48
2022/08/07 02:15:23;;;;;;;4.78;4.45;;;;;;;19.23;100.00;99625.85;1711445;82;21133;-48
2022/08/07 02:17:51;;;;;;;4.72;4.20;;;;;;;19.20;100.00;99617.45;1703714;82;20913;-48
2022/08/07 02:20:18;;;;;;;9.68;4.17;;;;;;;19.19;100.00;99629.36;1702552;82;20964;-48
2022/08/07 02:22:44;;;;;;;4.22;3.83;;;;;;;19.20;100.00;99623.41;1670824;82;20932;-48
2022/08/07 02:25:12;;;;;;;6.03;3.58;;;;;;;19.21;100.00;99622.41;1702165;82;21503;-49
2022/08/07 02:27:38;;;;;;;5.30;4.92;;;;;;;19.22;100.00;99623.62;1702511;82;20968;-49
2022/08/07 02:30:07;;;;;;;10.80;4.22;;;;;;;19.23;100.00;99623.12;1674179;82;21087;-49
2022/08/07 02:32:37;;;;;;;7.20;3.55;;;;;;;19.24;100.00;99623.00;1702372;82;20929;-48
2022/08/07 02:35:05;;;;;;;4.12;3.83;;;;;;;19.25;100.00;99625.23;1708074;82;20984;-48
2022/08/07 02:37:33;;;;;;;6.75;4.83;;;;;;;19.25;100.00;99626.59;1704831;82;21542;-47
2022/08/07 02:40:00;;;;;;;6.03;4.70;;;;;;;19.22;100.00;99621.42;1703912;82;20976;-51
2022/08/07 02:42:30;;;;;;;7.70;5.78;;;;;;;19.18;100.00;99619.94;1643976;84;21136;-47
2022/08/07 02:44:58;;;;;;;6.08;5.67;;;;;;;19.15;100.00;99630.61;1664487;84;21557;-48
2022/08/07 02:47:24;;;;;;;8.03;6.17;;;;;;;19.16;100.00;99623.29;1669047;84;21158;-48
2022/08/07 02:49:52;;;;;;;4.92;4.53;;;;;;;19.16;100.00;99630.98;1666206;84;21574;-48
2022/08/07 02:52:24;;;;;;;8.88;5.50;;;;;;;19.18;100.00;99624.03;1673302;84;21478;-50
2022/08/07 02:54:51;;;;;;;5.50;5.12;;;;;;;19.20;100.00;99620.19;1669382;84;21098;-47
2022/08/07 02:57:20;;;;;;;10.00;5.70;;;;;;;19.22;100.00;99628.25;1666502;84;21151;-47
2022/08/07 02:59:49;;;;;;;7.70;5.53;;;;;;;19.17;100.00;99632.71;1665719;84;21118;-48
2022/08/07 03:02:16;;;;;;;5.80;5.33;;;;;;;19.12;100.00;99636.34;1665636;84;21290;-49
2022/08/07 03:04:44;;;;;;;5.40;4.92;;;;;;;19.10;100.00;99634.73;1668467;84;21502;-48
2022/08/07 03:07:10;;;;;;;5.80;4.30;;;;;;;19.09;100.00;99630.27;1666446;84;21150;-50
2022/08/07 03:09:38;;;;;;;8.38;4.75;;;;;;;19.07;100.00;99637.71;1632562;86;21152;-47
2022/08/07 03:12:06;;;;;;;5.80;5.03;;;;;;;19.07;100.00;99634.98;1663823;83;21073;-49
2022/08/07 03:14:35;;;;;;;4.47;4.03;;;;;;;19.10;100.00;99636.09;1624792;84;21825;-49
2022/08/07 03:17:03;;;;;;;6.87;4.03;;;;;;;19.12;100.00;99631.39;1670733;84;21588;-50
2022/08/07 03:19:29;;;;;;;7.25;4.83;;;;;;;19.14;100.00;99637.59;1667435;83;21634;-49
2022/08/07 03:21:57;;;;;;;5.37;4.80;;;;;;;19.16;100.00;99639.16;1668781;83;21121;-48
2022/08/07 03:24:24;;;;;;;8.95;4.60;;;;;;;19.18;100.00;99637.67;1694035;82;21100;-48
2022/08/07 03:26:50;;;;;;;9.00;6.00;;;;;;;19.20;100.00;99639.78;1695625;82;21206;-46
2022/08/07 03:29:18;;;;;;;5.55;5.15;;;;;;;19.22;100.00;99636.43;1697505;82;21505;-48
2022/08/07 03:31:45;;;;;;;5.97;5.58;;;;;;;19.24;100.00;99635.28;1698539;82;21066;-48
2022/08/07 03:34:14;;;;;;;12.37;6.00;;;;;;;19.28;100.00;99634.53;1676868;83;21096;-48
2022/08/07 03:36:40;;;;;;;4.95;4.53;;;;;;;19.32;100.00;99637.84;1700378;82;21105;-47
2022/08/07 03:39:08;;;;;;;7.55;5.25;;;;;;;19.36;100.00;99638.83;1703374;82;21181;-48
2022/08/07 03:41:36;;;;;;;5.65;5.25;;;;;;;19.42;100.00;99641.52;1691934;82;21126;-49
2022/08/07 03:44:03;;;;;;;5.80;4.47;;;;;;;19.48;100.00;99641.05;1701240;82;21056;-50
2022/08/07 03:46:30;;;;;;;5.53;5.00;;;;;;;19.54;100.00;99639.13;1694879;82;21072;-49
2022/08/07 03:48:57;;;;;;;5.25;4.85;;;;;;;19.60;100.00;99644.05;1701130;82;22238;-50
2022/08/07 03:51:24;;;;;;;6.28;5.87;;;;;;;19.64;100.00;99645.53;1695109;82;22283;-50
2022/08/07 03:53:51;;;;;;;6.92;6.53;;;;;;;19.72;100.00;99642.99;1696897;82;21524;-48
2022/08/07 03:56:19;;;;;;;6.62;6.08;;;;;;;19.78;100.00;99641.58;1703875;82;21056;-49
2022/08/07 03:58:47;;;;;;;7.62;7.05;;;;;;;19.82;100.00;99642.52;1697248;82;21394;-50
2022/08/07 04:01:14;;;;;;;8.65;7.95;;;;;;;19.88;100.00;99644.73;1696544;82;21090;-48
2022/08/07 04:03:42;;;;;;;7.72;7.30;;;;;;;19.95;100.00;99650.52;1692149;82;21185;-48
2022/08/07 04:06:10;;;;;;;6.33;5.72;;;;;;;20.04;100.00;99646.97;1694022;82;21475;-48
2022/08/07 04:08:40;;;;;;;5.03;4.83;;;;;;;20.10;100.00;99647.78;1694779;82;21025;-51
2022/08/07 04:11:09;;;;;;;4.62;4.08;;;;;;;20.15;100.00;99645.52;1693343;82;21727;-48
2022/08/07 04:13:36;;;;;;;7.50;4.33;;;;;;;20.23;100.00;99640.73;1698206;82;21079;-49
2022/08/07 04:16:04;;;;;;;7.55;5.87;;;;;;;20.30;100.00;99648.24;1700426;82;21209;-48
2022/08/07 04:18:32;;;;;;;7.97;7.40;;;;;;;20.39;100.00;99649.31;1692415;82;21102;-48
2022/08/07 04:20:59;;;;;;;8.80;8.25;;;;;;;20.48;100.00;99644.38;1692509;82;21083;-49
2022/08/07 04:23:27;;;;;;;7.42;6.83;;;;;;;20.60;100.00;99643.75;1672774;83;21074;-48
2022/08/07 04:25:54;;;;;;;8.80;8.10;;;;;;;20.73;100.00;99651.20;1689740;82;21065;-49
2022/08/07 04:28:21;;;;;;;7.85;7.25;;;;;;;20.86;100.00;99652.30;1695081;82;21106;-48
2022/08/07 04:30:49;;;;;;;7.20;6.62;;;;;;;20.99;100.00;99653.77;1691746;82;21079;-50
2022/08/07 04:33:24;;;;;;;8.98;8.38;;;;;;;21.12;100.00;99653.48;1654219;84;21821;-49
2022/08/07 04:35:50;;;;;;;9.95;9.18;;;;;;;21.28;100.00;99648.83;1627602;85;21099;-46
2022/08/07 04:38:17;;;;;;;9.18;8.55;;;;;;;21.41;100.00;99653.53;1652719;84;21093;-47
2022/08/07 04:40:46;;;;;;;8.55;8.05;;;;;;;21.56;100.00;99653.44;1616183;84;22497;-47
2022/08/07 04:43:15;;;;;;;12.65;10.10;;;;;;;21.75;100.00;99647.06;1670272;84;21693;-47
2022/08/07 04:45:54;;;;;;;10.03;8.08;;;;;;;21.92;100.00;99653.16;1664324;83;21031;-50
2022/08/07 04:48:36;;;;;;;9.23;7.28;;;;;;;22.07;100.00;99652.20;1643969;85;21118;-47
2022/08/07 04:51:13;;;;;;;7.80;7.22;;;;;;;22.19;100.00;99655.12;1644227;85;21105;-47
2022/08/07 04:53:56;;;;;;;7.58;6.97;;;;;;;22.31;100.00;99664.00;1645285;85;21476;-48
2022/08/07 04:56:49;;;;;;;7.10;6.60;;;;;;;22.43;100.00;99660.94;1628487;85;20950;-47
2022/08/07 04:59:48;;;;;;;8.55;7.78;;;;;;;22.55;100.00;99665.19;1690675;82;20963;-47
2022/08/07 05:02:36;;;;;;;7.35;6.75;;;;;;;22.68;100.00;99663.98;1693958;82;20917;-49
2022/08/07 05:05:14;;;;;;;8.68;7.95;;;;;;;22.83;100.00;99668.83;1691010;82;21358;-49
2022/08/07 05:08:08;;;;;;;8.20;7.72;;;;;;;22.94;100.00;99668.63;1692121;83;21162;-47
2022/08/07 05:10:46;;;;;;;7.45;7.05;;;;;;;23.05;100.00;99677.16;1692676;82;21119;-48
2022/08/07 05:13:20;;;;;;;7.47;6.85;;;;;;;23.18;100.00;99673.50;1692912;82;21043;-50
2022/08/07 05:15:49;;;;;;;7.45;6.97;;;;;;;23.30;100.00;99671.40;1693225;82;21143;-47
2022/08/07 05:18:29;;;;;;;7.30;6.83;;;;;;;23.40;100.00;99677.14;1695942;83;21084;-50
2022/08/07 05:21:01;;;;;;;5.95;5.65;;;;;;;23.51;100.00;99673.84;1689208;83;21946;-50
2022/08/07 05:23:48;;;;;;;5.30;5.00;;;;;;;23.60;100.00;99668.27;1694281;82;21290;-48
2022/08/07 05:26:19;;;;;;;6.22;5.75;;;;;;;23.68;100.00;99672.96;1663058;82;20946;-46
2022/08/07 05:28:51;;;;;;;5.35;4.92;;;;;;;23.77;100.00;99674.75;1694334;82;20932;-47
2022/08/07 05:31:21;;;;;;;6.50;5.97;;;;;;;23.84;100.00;99673.09;1661298;84;21074;-49
2022/08/07 05:33:48;;;;;;;4.45;4.15;;;;;;;23.93;100.00;99673.50;1665619;84;21139;-48
2022/08/07 05:36:15;;;;;;;4.92;4.67;;;;;;;24.02;100.00;99664.80;1658615;84;21029;-49
2022/08/07 05:38:42;;;;;;;5.45;4.92;;;;;;;24.14;100.00;99671.77;1696931;82;21370;-49
2022/08/07 05:41:09;;;;;;;5.30;5.00;;;;;;;24.23;100.00;99667.20;1697549;83;21120;-50
2022/08/07 05:43:37;;;;;;;4.90;4.67;;;;;;;24.31;100.00;99668.12;1695782;82;21072;-49
2022/08/07 05:46:04;;;;;;;4.95;4.65;;;;;;;24.41;100.00;99679.01;1697454;82;21230;-49
2022/08/07 05:48:31;;;;;;;4.92;4.72;;;;;;;24.49;100.00;99679.05;1698033;82;21103;-50
2022/08/07 05:50:59;;;;;;;5.55;5.35;;;;;;;24.56;100.00;99671.85;1695287;82;21513;-51
2022/08/07 05:53:26;;;;;;;5.42;4.92;;;;;;;24.63;100.00;99674.28;1680595;82;21602;-50
2022/08/07 05:55:54;;;;;;;4.72;4.30;;;;;;;24.71;100.00;99681.20;1691276;82;21046;-47
2022/08/07 05:58:23;;;;;;;6.17;4.05;;;;;;;24.79;100.00;99678.48;1700178;81;21330;-49
2022/08/07 06:00:49;;;;;;;5.22;3.62;;;;;;;24.88;100.00;99678.86;1695142;82;21050;-50
2022/08/07 06:03:17;;;;;;;3.98;3.70;;;;;;;24.99;100.00;99686.50;1698520;83;21121;-49
2022/08/07 06:05:46;;;;;;;3.45;3.02;;;;;;;25.09;100.00;99685.84;1640004;83;20989;-48
2022/08/07 06:08:14;;;;;;;3.27;2.98;;;;;;;25.18;100.00;99688.94;1672505;82;906341;-49
2022/08/07 06:10:42;;;;;;;2.92;2.83;;;;;;;25.25;100.00;99689.50;1697535;82;21754;-49
2022/08/07 06:13:09;;;;;;;4.45;4.10;;;;;;;25.33;100.00;99683.14;1681816;83;21116;-49
2022/08/07 06:15:36;;;;;;;3.92;3.62;;;;;;;25.39;100.00;99687.96;1696760;82;21565;-49
2022/08/07 06:18:02;;;;;;;3.62;3.42;;;;;;;25.47;100.00;99688.48;1706705;81;23579;-51
2022/08/07 06:20:30;;;;;;;4.10;2.85;;;;;;;25.54;100.00;99684.87;1711624;81;21154;-49
2022/08/07 06:22:57;;;;;;;2.70;2.52;;;;;;;25.61;100.00;99685.94;1714829;81;21232;-49
2022/08/07 06:40:16;;;;;;;3.08;2.87;;;;;;;25.70;100.00;99688.69;1673714;81;985303;-49
2022/08/07 06:42:46;;;;;;;2.70;2.08;;;;;;;25.70;100.00;99688.69;1712308;81;21091;-51
2022/08/07 06:45:19;;;;;;;5.25;2.90;;;;;;;26.27;100.00;99686.80;1713742;81;21257;-53
2022/08/07 06:47:47;;;;;;;2.92;2.75;;;;;;;26.28;100.00;99693.52;1711935;81;21106;-52
2022/08/07 06:50:15;;;;;;;3.45;3.17;;;;;;;26.30;100.00;99685.91;1711362;81;21144;-51
2022/08/07 06:52:46;;;;;;;4.22;3.20;;;;;;;26.33;100.00;99685.56;1713641;81;21090;-49
2022/08/07 06:55:22;;;;;;;3.45;2.75;;;;;;;26.35;100.00;99682.64;1715376;81;21071;-49
2022/08/07 06:57:49;;;;;;;2.50;2.40;;;;;;;26.39;100.00;99685.37;1717263;81;21135;-50
2022/08/07 07:00:18;;;;;;;3.62;2.20;;;;;;;26.43;100.00;99677.61;1711280;81;21168;-51
2022/08/07 07:02:46;;;;;;;3.10;2.40;;;;;;;26.48;100.00;99680.69;1717424;81;21302;-49
2022/08/07 07:07:44;;;;;;;3.05;2.95;;;;;;;26.63;100.00;99683.91;1866719;75;21637;-50
2022/08/07 07:10:13;;;;;;;2.30;2.10;;;;;;;26.66;100.00;99688.22;1836335;76;21250;-49
2022/08/07 07:12:50;;;;;;;2.72;2.50;;;;;;;26.71;100.00;99686.63;1813292;77;21216;-50
2022/08/07 07:15:21;;;;;;;2.92;2.77;;;;;;;26.76;100.00;99686.11;1814404;76;21023;-51
2022/08/07 07:18:02;;;;;;;4.03;3.30;;;;;;;26.82;100.00;99696.43;1845031;75;21282;-49
2022/08/07 07:20:35;;;;;;;3.08;2.40;;;;;;;26.85;100.00;99698.84;1803755;76;21573;-51
2022/08/07 07:23:03;;;;;;;2.42;2.33;;;;;;;26.88;100.00;99695.70;1837942;76;20973;-49
2022/08/07 07:25:30;;;;;;;3.35;3.22;;;;;;;26.91;100.00;99698.67;1837161;76;21500;-51
2022/08/07 07:28:11;;;;;;;3.45;3.05;;;;;;;26.96;100.00;99703.16;1838638;76;106829;-51
2022/08/07 07:30:41;;;;;;;4.70;3.35;;;;;;;26.99;100.00;99706.40;1836441;76;565066;-50
2022/08/07 07:33:10;;;;;;;6.70;3.30;;;;;;;27.00;100.00;99695.69;1841858;75;20996;-51
2022/08/07 07:35:37;;;;;;;3.95;2.27;;;;;;;27.03;100.00;99706.39;1842952;76;21142;-50
2022/08/07 10:08:42;;;;;;;2.38;2.28;;;;;;;27.08;100.00;99706.70;1780773;76;984659;-49
